EDT,Max TemperatureF,Mean TemperatureF,Min TemperatureF,Max Dew PointF,MeanDew PointF,Min DewpointF,Max Humidity, Mean Humidity, Min Humidity, Max Sea Level PressureIn, Mean Sea Level PressureIn, Min Sea Level PressureIn, Max VisibilityMiles, Mean VisibilityMiles, Min VisibilityMiles, Max Wind SpeedMPH, Mean Wind SpeedMPH, Max Gust SpeedMPH,PrecipitationIn, CloudCover, Events, WindDirDegrees
2013-8-1,86,80,73,77,73,70,100,86,66,30.05,30.00,29.97,10,10,1,14,3,20,0.00,3,Thunderstorm,229
2013-8-2,89,80,71,77,73,70,100,77,55,30.06,30.01,29.96,10,10,7,13,5,18,0.00,2,,183
2013-8-3,91,82,73,79,75,72,100,80,52,30.05,30.02,29.98,10,9,1,10,2,,0.00,3,Thunderstorm,233
2013-8-4,91,84,77,77,74,73,94,75,55,30.04,29.99,29.94,10,10,7,13,6,16,0.00,1,,261
2013-8-5,87,80,73,77,74,72,94,81,62,30.01,29.99,29.96,10,10,10,14,3,20,0.00,4,Thunderstorm,78
2013-8-6,87,82,77,77,74,73,89,78,66,30.03,30.00,29.94,10,10,5,13,7,16,0.00,4,,113
2013-8-7,87,80,73,73,72,68,94,76,55,30.06,30.02,29.99,10,10,10,12,5,16,0.00,2,,82
2013-8-8,89,80,71,79,74,72,100,82,58,30.08,30.03,29.99,10,9,2,13,2,16,0.00,3,Thunderstorm,145
2013-8-9,89,82,75,77,74,70,100,73,55,30.13,30.08,30.01,10,10,10,12,5,,0.00,2,,149
2013-8-10,91,81,71,77,73,70,100,75,49,30.16,30.12,30.09,10,9,1,13,3,17,0.00,1,,162
2013-8-11,93,85,77,79,76,72,100,77,52,30.19,30.14,30.09,10,10,2,10,4,,0.00,2,Thunderstorm,191
2013-8-12,95,86,77,79,74,72,94,76,47,30.13,30.07,30.01,10,10,2,14,4,20,0.00,3,Thunderstorm,245
2013-8-13,95,86,77,77,73,70,94,71,44,30.05,29.98,29.89,10,10,5,13,5,18,0.00,2,Thunderstorm,242
2013-8-14,95,83,71,77,73,68,94,76,44,30.04,29.94,29.87,10,10,2,16,6,33,0.00,3,Thunderstorm,241
2013-8-15,91,80,69,77,72,70,100,90,52,30.06,30.00,29.96,10,9,1,14,2,20,0.00,4,Thunderstorm,101
2013-8-16,89,80,71,77,73,72,100,85,58,30.08,30.02,29.95,10,7,0,12,2,16,0.00,5,Thunderstorm,200
2013-8-17,84,78,71,77,74,70,100,88,70,30.15,30.08,30.03,10,10,1,12,2,23,0.00,5,Thunderstorm,89
2013-8-18,89,80,71,77,75,70,100,84,62,30.16,30.12,30.08,10,10,3,15,5,18,0.00,3,Thunderstorm,101
2013-8-19,89,81,73,79,74,70,100,80,59,30.13,30.08,30.02,10,9,1,12,3,16,0.00,2,Thunderstorm,132
2013-8-20,89,80,71,77,74,70,100,81,59,30.15,30.10,30.06,10,10,2,13,3,17,0.00,2,Thunderstorm,123
2013-8-21,89,81,73,77,75,72,100,84,58,30.21,30.15,30.12,10,8,0,10,2,,0.00,2,Thunderstorm,92
2013-8-22,86,80,73,79,74,70,100,86,66,30.16,30.11,30.05,10,9,2,8,2,,0.00,2,Thunderstorm,105
2013-8-23,87,79,71,77,74,72,100,87,62,30.08,30.05,30.02,10,10,2,8,1,,0.00,2,Thunderstorm,172
2013-8-24,86,80,73,75,72,70,100,84,58,30.18,30.11,30.04,10,9,1,16,2,23,0.00,2,Thunderstorm,55
2013-8-25,84,78,71,73,70,64,100,77,58,30.26,30.21,30.17,10,10,5,18,8,28,0.00,5,Thunderstorm,44
2013-8-26,82,76,71,73,71,70,94,86,66,30.24,30.18,30.13,10,10,2,15,6,20,0.00,7,,24
2013-8-27,86,78,69,73,69,64,100,79,48,30.15,30.09,30.04,10,9,1,9,1,,0.00,5,,121
2013-8-28,89,78,68,73,69,68,100,78,49,30.08,30.04,29.99,10,9,2,10,2,16,0.00,2,,202
2013-8-29,91,81,71,75,71,68,100,74,49,30.03,29.97,29.91,10,10,7,14,5,18,0.00,1,,244
2013-8-30,87,80,73,79,74,70,94,82,62,29.98,29.94,29.91,10,9,2,17,4,22,0.00,2,Thunderstorm,31
2013-8-31,89,80,71,79,73,70,100,82,58,29.98,29.94,29.90,10,8,2,10,2,,0.00,2,Thunderstorm,134